תחנות METAR סמוכות

 

LLBG - Ben-Gurion(Civ/M, Israel
Distance from station: 'מ 83km
עודכן: 01/04/2020 02:20
בעיקר מעונן
בעיקר מעונן
 רוח מ 'ד
רוח: 'ד 9 km/h
טמפרטורה: 16°C
נקודת הטל: 11°C
לחות: 72%
ברומטר: 1010 hPa
עננים: בעיקר מעונן
ראות: 10 km
Cloud details: בעיקר מעונן 1036 m
2020/03/31 23:20 LLBG 312320Z 18005KT 9999 BKN034 16/11 Q1010 NOSIG
LLSD - Sde Dov Airport, Israel
Distance from station: 'מ 75km
עודכן: 30/06/2019 23:50
לא מעודכן
מעונן חלקית
מעונן חלקית
 רוח מ משתנה
רוח: משתנה 6 km/h
טמפרטורה: 27°C
עומס חום: 30°C
נקודת הטל: 23°C
לחות: 79%
ברומטר: 1007 hPa
עננים: מעונן חלקית
ראות: 10 km
Cloud details: מעונן חלקית 518 m
2019/06/30 20:50 LLSD 302050Z VRB03KT 9999 SCT017 27/23 Q1007
 
LLHA - Haifa (isr-Afb), Israel
Distance from station: 'צמ 129km
עודכן: 31/03/2020 19:50
לא מעודכן
בהיר
בהיר
 רוח מ 'צמ
רוח: 'צמ 9 km/h
טמפרטורה: 20°C
נקודת הטל: 11°C
לחות: 56%
ברומטר: 1007 hPa
סיכום: בהיר
ראות: greater than 10 km
2020/03/31 16:50 LLHA 311650Z 04005KT 340V090 CAVOK 20/11 Q1007
LLIB - Ben Ya Akov, Israel
Distance from station: 'צמ 183km
עודכן: 31/03/2020 16:50
לא מעודכן
בהיר
בהיר
 רוח מ 'ד
רוח: 'ד 11 km/h
טמפרטורה: 25°C
נקודת הטל: 8°C
לחות: 34%
ברומטר: 1006 hPa
סיכום: בהיר
ראות: greater than 10 km
2020/03/31 13:50 LLIB 311350Z 19006KT 120V250 CAVOK 25/08 Q1006
 
LLOV - Ovda (isr-Afb/Ci, Israel
Distance from station: 'דדמ 246km
עודכן: 31/03/2019 22:50
לא מעודכן
בהיר
בהיר
 רוח מ 'מדמ
רוח: 'מדמ 13 km/h
טמפרטורה: 12°C
נקודת הטל: 0°C
לחות: 44%
ברומטר: 1012 hPa
סיכום: בהיר
ראות: greater than 10 km
2019/03/31 19:50 LLOV 311950Z 24007KT CAVOK 12/00 Q1012
LLET - Elat/J. Hozman(A, Israel
Distance from station: 'דדמ 287km
עודכן: 18/03/2019 17:50
לא מעודכן
בהיר
בהיר
 רוח מ 'צצמ
רוח: 'צצמ 30 km/h
טמפרטורה: 24°C
נקודת הטל: -1°C
לחות: 19%
ברומטר: 1016 hPa
סיכום: בהיר
ראות: greater than 10 km
2019/03/18 15:50 LLET 181550Z 02016KT CAVOK 24/M01 Q1016
 
LCLK - Larnaca/Larnax A, Cyprus
Distance from station: 'צ 321km
עודכן: 01/04/2020 02:00
מעונן חלקית
מעונן חלקית
 רוח מ 'דמ
רוח: 'דמ 24 km/h
טמפרטורה: 16°C
נקודת הטל: 14°C
לחות: 88%
ברומטר: 1005 hPa
עננים: מעונן חלקית
ראות: 6 km
Cloud details: Few Clouds 366 m
מעונן חלקית 518 m
2020/03/31 23:00 LCLK 312300Z 22013KT 6000 FEW012 SCT017 16/14 Q1005 NOSIG